Página principal
METAR-TAF:

METAR-TAF

Aeroportos :

Luganville, Espírito Santo, Vanuatu

latitude: 15-31S, longitude: 167-13E, altura: 41 m

Observação actual do tempo

O boletim foi feito há 25 minutos, às 02:00 UTC
Vento 4 kt de sul
Temperatura 29°C
Humidade 79%
Pressão 1009 hPa
Visibilidade 10 km ou mais
Poucas nuvensa uma altura de 2500 ft
Nuvens dispersasa uma altura de 12000 ft

METAR: NVSS 190200Z 19004KT 9999 FEW025 SCT120 29/25 Q1009

Hora: 13:25 (02:25 UTC)

Previsão

O boletim foi feito há 4 horas e 5 minutos, às 22:20 UTC
Previsão válida de 19 às 00 UTC a 19 às 24 UTC
Vento 7 kt de es-sudeste
Visibilidade: 9000 m
Nuvens dispersasa uma altura de 2000 ft
Nuvens fragmentadasa uma altura de 4000 ft
Nuvens fragmentadasa uma altura de 1800 ft
aguaceiros fracos de chuva

TAF: NVSS 182220Z 1900/1924 11007KT 9999 SCT020 BKN040 INTER 1900/1906 9000 -SHRA BKN018

Observações e previsões do tempo de mais de 4000 aeroportos (mensagens METAR e TAF).

As estações disponíveis são os pontos amarelos e vermelhos sobre o mapa.

Mova o rato sobre o mapa para ver o nome da estação.

Depois clique no ponto para visualizar as observações e previsões meteorológicas.

Para alterar o mapa : clique nos botões verdes com uma cruz preta para aumentar o zoom; no botão verde com uma pitada de zoom; ou nas setas verdes para mapas adjacentes.


METAR-TAF: